createdAt,value
2018-07-20T00:02:12.916Z,6.70
2018-07-20T00:04:41.368Z,6.13
2018-07-20T00:07:09.798Z,6.20
2018-07-20T00:09:38.196Z,5.73
2018-07-20T00:12:07.160Z,5.90
2018-07-20T00:14:35.581Z,7.37
2018-07-20T00:17:04.062Z,7.30
2018-07-20T00:19:32.512Z,7.33
2018-07-20T00:22:00.949Z,7.20
2018-07-20T00:24:29.348Z,6.90
2018-07-20T00:26:57.808Z,6.40
2018-07-20T00:29:26.257Z,6.70
2018-07-20T00:31:54.751Z,7.13
2018-07-20T00:34:23.120Z,7.00
2018-07-20T00:36:51.656Z,7.23
2018-07-20T00:39:20.044Z,7.90
2018-07-20T00:41:48.437Z,7.90
2018-07-20T00:44:16.861Z,8.20
2018-07-20T00:46:45.264Z,7.40
2018-07-20T00:49:13.840Z,8.17
2018-07-20T00:51:42.402Z,8.50
2018-07-20T00:54:10.825Z,8.43
2018-07-20T00:56:39.273Z,7.77
2018-07-20T00:59:07.687Z,8.13
2018-07-20T01:01:36.105Z,6.87
2018-07-20T01:04:04.664Z,7.30
2018-07-20T01:06:33.083Z,7.50
2018-07-20T01:09:01.510Z,6.20
2018-07-20T01:11:29.985Z,6.63
2018-07-20T01:13:58.456Z,6.03
2018-07-20T01:16:26.827Z,6.70
2018-07-20T01:18:55.252Z,5.73
2018-07-20T01:21:23.668Z,6.57
2018-07-20T01:23:52.088Z,6.73
2018-07-20T01:26:20.540Z,6.70
2018-07-20T01:28:48.949Z,6.90
2018-07-20T01:31:17.347Z,6.53
2018-07-20T01:33:45.723Z,6.53
2018-07-20T01:36:14.140Z,6.33
2018-07-20T01:38:42.543Z,6.60
2018-07-20T01:41:10.964Z,6.70
2018-07-20T01:43:39.356Z,7.50
2018-07-20T01:46:08.841Z,7.30
2018-07-20T01:48:37.261Z,7.63
2018-07-20T01:51:05.712Z,7.93
2018-07-20T01:53:34.115Z,7.83
2018-07-20T01:56:02.507Z,7.83
2018-07-20T01:58:30.908Z,7.73
2018-07-20T02:00:59.023Z,7.87
2018-07-20T02:03:27.428Z,7.57
2018-07-20T02:05:55.872Z,7.47
2018-07-20T02:08:24.249Z,7.93
2018-07-20T02:10:57.684Z,7.70
2018-07-20T02:13:26.460Z,7.40
2018-07-20T02:15:55.324Z,7.77
2018-07-20T02:18:24.503Z,7.50
2018-07-20T02:20:52.633Z,8.20
2018-07-20T02:23:22.140Z,8.00
2018-07-20T02:25:50.554Z,8.13
2018-07-20T02:28:18.976Z,8.00
2018-07-20T02:30:47.405Z,7.70
2018-07-20T02:33:15.789Z,8.17
2018-07-20T02:35:44.195Z,7.63
2018-07-20T02:38:12.604Z,7.90
2018-07-20T02:40:41.015Z,7.87
2018-07-20T02:43:09.393Z,7.47
2018-07-20T02:45:37.492Z,7.60
2018-07-20T02:48:05.869Z,7.87
2018-07-20T02:50:34.276Z,7.83
2018-07-20T02:53:02.656Z,7.90
2018-07-20T02:55:31.041Z,8.00
2018-07-20T02:57:59.506Z,7.70
2018-07-20T03:00:27.948Z,7.53
2018-07-20T03:02:56.412Z,6.83
2018-07-20T03:05:24.909Z,8.03
2018-07-20T03:07:53.417Z,8.00
2018-07-20T03:10:21.833Z,7.37
2018-07-20T03:12:50.227Z,8.27
2018-07-20T03:15:18.629Z,7.53
2018-07-20T03:17:47.055Z,7.33
2018-07-20T03:20:15.436Z,8.00
2018-07-20T03:22:43.900Z,7.40
2018-07-20T03:25:12.276Z,7.37
2018-07-20T03:27:40.699Z,7.67
2018-07-20T03:30:09.139Z,6.97
2018-07-20T03:32:37.850Z,7.10
2018-07-20T03:35:06.857Z,7.20
2018-07-20T03:37:35.627Z,7.73
2018-07-20T03:40:04.109Z,7.20
2018-07-20T03:42:32.549Z,7.37
2018-07-20T03:45:00.943Z,7.40
2018-07-20T03:47:29.455Z,7.60
2018-07-20T03:49:57.877Z,7.67
2018-07-20T03:52:26.252Z,7.80
2018-07-20T03:54:54.653Z,7.77
2018-07-20T03:57:23.019Z,6.97
2018-07-20T03:59:51.463Z,8.07
2018-07-20T04:02:19.921Z,7.33
2018-07-20T04:04:48.424Z,7.20
2018-07-20T04:07:16.818Z,8.07
2018-07-20T04:09:45.388Z,7.47
2018-07-20T04:12:14.386Z,7.40
2018-07-20T04:14:42.811Z,7.53
2018-07-20T04:17:11.228Z,7.43
2018-07-20T04:19:39.660Z,7.50
2018-07-20T04:22:08.029Z,7.23
2018-07-20T04:24:36.509Z,7.13
2018-07-20T04:27:04.920Z,7.17
2018-07-20T04:29:33.336Z,7.10
2018-07-20T04:32:01.788Z,7.70
2018-07-20T04:34:30.200Z,7.50
2018-07-20T04:36:58.621Z,8.43
2018-07-20T04:39:27.037Z,9.37
2018-07-20T04:41:55.474Z,12.70
2018-07-20T04:44:23.874Z,8.47
2018-07-20T04:46:52.278Z,9.17
2018-07-20T04:49:20.798Z,13.90
2018-07-20T04:51:49.195Z,9.37
2018-07-20T04:54:17.630Z,9.07
2018-07-20T04:56:46.104Z,8.07
2018-07-20T04:59:14.512Z,11.60
2018-07-20T05:01:42.965Z,9.90
2018-07-20T05:04:11.332Z,7.67
2018-07-20T05:06:39.736Z,8.33
2018-07-20T05:09:09.536Z,7.60
2018-07-20T05:11:38.665Z,7.80
2018-07-20T05:14:07.324Z,8.40
2018-07-20T05:16:35.823Z,8.13
2018-07-20T05:19:04.243Z,9.07
2018-07-20T05:21:32.687Z,8.67
2018-07-20T05:24:01.345Z,8.60
2018-07-20T05:26:30.150Z,8.27
2018-07-20T05:28:58.643Z,8.27
2018-07-20T05:31:27.064Z,17.47
2018-07-20T05:33:55.177Z,9.70
2018-07-20T05:36:23.614Z,9.43
2018-07-20T05:38:52.085Z,9.47
2018-07-20T05:41:20.465Z,8.30
2018-07-20T05:43:48.858Z,7.83
2018-07-20T05:46:17.561Z,11.47
2018-07-20T05:48:46.184Z,7.87
2018-07-20T05:51:14.779Z,7.97
2018-07-20T05:53:43.260Z,7.97
2018-07-20T05:56:11.728Z,6.97
2018-07-20T05:58:40.221Z,7.20
2018-07-20T06:01:08.700Z,6.97
2018-07-20T06:03:37.124Z,7.20
2018-07-20T06:06:05.836Z,6.28
2018-07-20T06:08:34.240Z,9.27
2018-07-20T06:11:02.676Z,7.30
2018-07-20T06:13:30.771Z,7.70
2018-07-20T06:15:59.280Z,6.35
2018-07-20T06:18:27.711Z,6.70
2018-07-20T06:20:56.201Z,8.90
2018-07-20T06:23:25.037Z,7.37
2018-07-20T06:25:53.470Z,6.90
2018-07-20T06:28:21.904Z,7.05
2018-07-20T06:30:50.697Z,6.53
2018-07-20T06:33:19.088Z,7.05
2018-07-20T06:35:47.545Z,8.60
2018-07-20T06:38:16.332Z,8.08
2018-07-20T06:40:45.092Z,7.40
2018-07-20T06:43:13.684Z,7.28
2018-07-20T06:45:42.097Z,6.92
2018-07-20T06:48:10.536Z,8.18
2018-07-20T06:50:38.941Z,7.03
2018-07-20T06:53:07.348Z,8.55
2018-07-20T06:55:35.812Z,8.43
2018-07-20T06:58:04.251Z,8.18
2018-07-20T07:00:32.719Z,9.30
2018-07-20T07:03:01.217Z,9.73
2018-07-20T07:05:29.693Z,10.15
2018-07-20T07:07:58.139Z,13.93
2018-07-20T07:10:26.553Z,20.05
2018-07-20T07:12:55.046Z,11.30
2018-07-20T07:15:23.612Z,10.23
2018-07-20T07:17:52.036Z,12.03
2018-07-20T07:20:20.482Z,10.37
2018-07-20T07:22:48.971Z,9.70
2018-07-20T07:25:17.405Z,12.33
2018-07-20T07:27:45.904Z,12.33
2018-07-20T07:30:14.322Z,10.77
2018-07-20T07:32:42.735Z,10.73
2018-07-20T07:35:11.185Z,12.07
2018-07-20T07:37:39.673Z,10.73
2018-07-20T07:40:08.235Z,12.47
2018-07-20T07:42:36.829Z,11.73
2018-07-20T07:45:05.408Z,10.93
2018-07-20T07:47:33.795Z,12.10
2018-07-20T07:50:02.227Z,10.53
2018-07-20T07:52:30.720Z,11.77
2018-07-20T07:54:59.133Z,12.60
2018-07-20T07:57:27.512Z,10.60
2018-07-20T07:59:55.961Z,12.80
2018-07-20T08:02:24.363Z,15.83
2018-07-20T08:04:52.891Z,16.13
2018-07-20T08:07:21.290Z,17.70
2018-07-20T08:09:50.134Z,14.50
2018-07-20T08:12:18.480Z,16.07
2018-07-20T08:14:48.270Z,15.33
2018-07-20T08:17:16.710Z,12.90
2018-07-20T08:19:45.132Z,14.57
2018-07-20T08:22:13.560Z,13.07
2018-07-20T08:24:42.017Z,12.13
2018-07-20T08:27:10.523Z,13.77
2018-07-20T08:29:38.991Z,14.50
2018-07-20T08:32:07.416Z,12.70
2018-07-20T08:34:35.856Z,13.20
2018-07-20T08:37:04.272Z,14.17
2018-07-20T08:39:32.675Z,13.73
2018-07-20T08:42:01.148Z,14.13
2018-07-20T08:44:29.549Z,13.77
2018-07-20T08:46:57.981Z,11.40
2018-07-20T08:49:26.441Z,14.17
2018-07-20T08:51:55.046Z,14.13
2018-07-20T08:54:23.487Z,13.30
2018-07-20T08:56:51.916Z,13.97
2018-07-20T08:59:20.702Z,15.00
2018-07-20T09:01:49.513Z,14.03
2018-07-20T09:04:17.932Z,11.03
2018-07-20T09:06:46.357Z,13.00
2018-07-20T09:09:14.789Z,11.43
2018-07-20T09:11:43.277Z,9.97
2018-07-20T09:14:11.781Z,11.30
2018-07-20T09:16:40.279Z,13.93
2018-07-20T09:19:08.692Z,12.70
2018-07-20T09:21:37.122Z,12.43
2018-07-20T09:24:05.560Z,11.47
2018-07-20T09:26:34.001Z,13.20
2018-07-20T09:29:02.671Z,10.63
2018-07-20T09:31:31.156Z,10.13
2018-07-20T09:33:59.619Z,11.33
2018-07-20T09:36:28.073Z,11.73
2018-07-20T09:38:56.543Z,10.13
2018-07-20T09:41:25.083Z,11.20
2018-07-20T09:43:53.572Z,13.33
2018-07-20T09:46:22.125Z,11.70
2018-07-20T09:48:50.649Z,9.68
2018-07-20T09:51:19.064Z,11.68
2018-07-20T09:53:47.224Z,11.43
2018-07-20T09:56:15.662Z,11.40
2018-07-20T09:58:44.104Z,10.83
2018-07-20T10:01:12.652Z,9.03
2018-07-20T10:03:41.108Z,9.43
2018-07-20T10:06:09.547Z,9.87
2018-07-20T10:08:38.016Z,9.60
2018-07-20T10:11:06.223Z,10.18
2018-07-20T10:13:34.703Z,9.48
2018-07-20T10:16:03.328Z,9.37
2018-07-20T10:18:31.994Z,8.27
2018-07-20T10:21:00.496Z,18.23
2018-07-20T10:23:28.948Z,10.08
2018-07-20T10:25:57.476Z,8.55
2018-07-20T10:28:25.935Z,9.45
2018-07-20T10:30:54.406Z,8.48
2018-07-20T10:33:22.821Z,9.33
2018-07-20T10:35:51.350Z,9.43
2018-07-20T10:38:19.724Z,8.13
2018-07-20T10:40:48.164Z,8.08
2018-07-20T10:43:18.196Z,7.03
2018-07-20T10:45:46.706Z,7.80
2018-07-20T10:48:15.148Z,6.95
2018-07-20T10:50:43.219Z,6.53
2018-07-20T10:53:11.700Z,6.30
2018-07-20T10:55:40.102Z,5.35
2018-07-20T10:58:08.552Z,6.10
2018-07-20T11:00:37.183Z,6.33
2018-07-20T11:03:05.717Z,8.03
2018-07-20T11:05:34.249Z,6.22
2018-07-20T11:08:02.731Z,8.10
2018-07-20T11:10:31.071Z,8.60
2018-07-20T11:12:59.507Z,7.25
2018-07-20T11:15:27.904Z,6.90
2018-07-20T11:17:57.516Z,6.67
2018-07-20T11:20:25.955Z,6.45
2018-07-20T11:22:54.388Z,6.47
2018-07-20T11:25:22.923Z,6.35
2018-07-20T11:27:51.348Z,7.47
2018-07-20T11:30:19.792Z,6.45
2018-07-20T11:32:48.200Z,7.17
2018-07-20T11:35:16.660Z,7.33
2018-07-20T11:37:45.116Z,7.60
2018-07-20T11:40:13.579Z,7.33
2018-07-20T11:42:41.996Z,7.62
2018-07-20T11:45:10.519Z,8.45
2018-07-20T11:47:38.924Z,7.87
2018-07-20T11:50:07.464Z,7.75
2018-07-20T11:52:35.916Z,6.47
2018-07-20T11:55:04.456Z,7.90
2018-07-20T11:57:32.892Z,6.47
2018-07-20T12:00:01.416Z,6.53
2018-07-20T12:02:29.886Z,5.83
2018-07-20T12:04:58.361Z,5.22
2018-07-20T12:07:26.752Z,5.62
2018-07-20T12:09:55.200Z,6.60
2018-07-20T12:12:23.628Z,7.25
2018-07-20T12:14:52.076Z,7.05
2018-07-20T12:17:20.488Z,6.87
2018-07-20T12:19:48.936Z,5.70
2018-07-20T12:22:17.744Z,6.90
2018-07-20T12:24:46.136Z,7.12
2018-07-20T12:27:15.541Z,6.80
2018-07-20T12:29:44.060Z,6.35
2018-07-20T12:32:12.468Z,6.78
2018-07-20T12:34:40.953Z,6.83
2018-07-20T12:37:09.410Z,6.47
2018-07-20T12:39:37.859Z,6.30
2018-07-20T12:42:06.361Z,6.08
2018-07-20T12:44:34.762Z,6.72
2018-07-20T12:47:03.244Z,6.70
2018-07-20T12:49:31.680Z,6.70
2018-07-20T12:52:00.228Z,6.12
2018-07-20T12:54:28.768Z,6.35
2018-07-20T12:56:57.239Z,6.15
2018-07-20T12:59:25.768Z,6.80
2018-07-20T13:01:54.180Z,7.00
2018-07-20T13:04:22.603Z,7.65
2018-07-20T13:06:51.129Z,7.25
2018-07-20T13:09:19.594Z,6.65
2018-07-20T13:11:48.203Z,6.17
2018-07-20T13:14:16.660Z,6.65
2018-07-20T13:16:45.174Z,8.78
2018-07-20T13:19:13.629Z,6.70
2018-07-20T13:21:42.217Z,7.37
2018-07-20T13:24:10.823Z,7.25
2018-07-20T13:26:39.610Z,8.85
2018-07-20T13:29:08.139Z,7.70
2018-07-20T13:31:36.624Z,7.50
2018-07-20T13:34:05.088Z,8.60
2018-07-20T13:36:33.547Z,7.75
2018-07-20T13:39:02.022Z,8.03
2018-07-20T13:41:30.478Z,7.22
2018-07-20T13:43:58.968Z,7.55
2018-07-20T13:46:27.401Z,9.08
2018-07-20T13:48:55.828Z,7.83
2018-07-20T13:51:24.282Z,7.87
2018-07-20T13:53:52.744Z,7.15
2018-07-20T13:56:21.217Z,7.47
2018-07-20T13:58:49.722Z,7.10
2018-07-20T14:01:18.152Z,6.50
2018-07-20T14:03:46.641Z,6.00
2018-07-20T14:06:15.095Z,6.45
2018-07-20T14:08:43.615Z,6.90
2018-07-20T14:11:12.103Z,6.30
2018-07-20T14:13:40.509Z,6.10
2018-07-20T14:16:09.011Z,9.38
2018-07-20T14:18:37.451Z,8.40
2018-07-20T14:21:05.939Z,7.30
2018-07-20T14:23:34.403Z,7.92
2018-07-20T14:26:02.943Z,7.37
2018-07-20T14:28:31.456Z,7.35
2018-07-20T14:31:00.047Z,8.43
2018-07-20T14:33:28.549Z,6.83
2018-07-20T14:35:57.011Z,7.75
2018-07-20T14:38:25.450Z,6.95
2018-07-20T14:40:53.916Z,7.28
2018-07-20T14:43:22.355Z,6.42
2018-07-20T14:45:50.833Z,6.20
2018-07-20T14:48:19.204Z,6.50
2018-07-20T14:50:47.760Z,6.30
2018-07-20T14:53:16.198Z,6.30
2018-07-20T14:55:44.680Z,8.13
2018-07-20T14:58:13.197Z,6.87
2018-07-20T15:00:41.728Z,6.95
2018-07-20T15:03:10.216Z,6.70
2018-07-20T15:05:38.932Z,6.95
2018-07-20T15:08:07.461Z,5.92
2018-07-20T15:10:35.928Z,6.25
2018-07-20T15:13:04.096Z,5.33
2018-07-20T15:15:32.492Z,5.60
2018-07-20T15:18:00.958Z,5.78
2018-07-20T15:20:29.436Z,5.80
2018-07-20T15:22:57.869Z,5.12
2018-07-20T15:25:26.407Z,5.70
2018-07-20T15:27:54.900Z,4.65
2018-07-20T15:30:23.463Z,6.25
2018-07-20T15:32:52.046Z,5.97
2018-07-20T15:35:20.682Z,5.53
2018-07-20T15:37:49.505Z,5.22
2018-07-20T15:40:17.928Z,4.80
2018-07-20T15:42:46.064Z,5.55
2018-07-20T15:45:14.540Z,4.78
2018-07-20T15:47:43.003Z,5.40
2018-07-20T15:50:11.432Z,5.00
2018-07-20T15:55:08.457Z,4.60
2018-07-20T15:57:36.948Z,5.20
2018-07-20T16:00:06.318Z,5.35
2018-07-20T16:02:34.716Z,5.75
2018-07-20T16:05:03.280Z,5.37
2018-07-20T16:07:31.780Z,5.67
2018-07-20T16:10:00.224Z,8.63
2018-07-20T16:12:28.640Z,4.90
2018-07-20T16:14:57.106Z,7.50
2018-07-20T16:17:25.523Z,5.58
2018-07-20T16:19:54.016Z,4.72
2018-07-20T16:22:22.490Z,5.67
2018-07-20T16:24:50.919Z,4.97
2018-07-20T16:27:19.419Z,7.60
2018-07-20T16:29:47.879Z,7.67
2018-07-20T16:32:16.338Z,6.22
2018-07-20T16:34:44.480Z,6.72
2018-07-20T16:37:12.896Z,5.67
2018-07-20T16:39:41.377Z,5.42
2018-07-20T16:42:10.128Z,5.20
2018-07-20T16:44:38.657Z,5.28
2018-07-20T16:47:07.118Z,5.17
2018-07-20T16:49:35.631Z,5.87
2018-07-20T16:52:04.282Z,4.90
2018-07-20T16:54:32.836Z,5.60
2018-07-20T16:57:01.386Z,6.08
2018-07-20T16:59:29.812Z,8.65
2018-07-20T17:01:58.369Z,5.60
2018-07-20T17:04:26.962Z,5.20
2018-07-20T17:06:55.377Z,5.08
2018-07-20T17:09:23.870Z,5.22
2018-07-20T17:11:53.167Z,6.58
2018-07-20T17:14:21.844Z,4.97
2018-07-20T17:16:50.315Z,4.85
2018-07-20T17:19:18.774Z,5.58
2018-07-20T17:21:47.144Z,4.95
2018-07-20T17:24:15.781Z,4.90
2018-07-20T17:26:44.149Z,5.25
2018-07-20T17:29:12.632Z,5.50
2018-07-20T17:31:41.198Z,5.42
2018-07-20T17:34:09.639Z,4.80
2018-07-20T17:36:38.092Z,4.75
2018-07-20T17:39:09.097Z,4.67
2018-07-20T17:41:37.692Z,5.00
2018-07-20T17:44:06.411Z,4.10
2018-07-20T17:46:34.900Z,4.97
2018-07-20T17:49:03.418Z,5.50
2018-07-20T17:51:31.884Z,5.95
2018-07-20T17:54:00.331Z,4.97
2018-07-20T17:56:28.787Z,4.83
2018-07-20T17:58:57.250Z,4.87
2018-07-20T18:01:25.996Z,4.95
2018-07-20T18:03:55.447Z,4.58
2018-07-20T18:06:23.920Z,4.97
2018-07-20T18:08:52.513Z,4.62
2018-07-20T18:11:21.419Z,5.05
2018-07-20T18:13:50.020Z,5.42
2018-07-20T18:16:19.154Z,5.43
2018-07-20T18:18:47.817Z,4.93
2018-07-20T18:21:16.318Z,5.45
2018-07-20T18:23:45.038Z,6.30
2018-07-20T18:26:13.747Z,6.10
2018-07-20T18:28:42.225Z,7.00
2018-07-20T18:31:10.704Z,5.63
2018-07-20T18:33:39.283Z,5.80
2018-07-20T18:36:08.058Z,5.97
2018-07-20T18:38:36.748Z,6.60
2018-07-20T18:41:05.567Z,6.93
2018-07-20T18:43:34.340Z,6.47
2018-07-20T18:46:02.792Z,6.80
2018-07-20T18:48:31.461Z,7.07
2018-07-20T18:50:59.851Z,6.43
2018-07-20T18:53:28.296Z,6.60
2018-07-20T18:55:56.875Z,6.73
2018-07-20T18:58:25.372Z,6.90
2018-07-20T19:00:53.910Z,8.10
2018-07-20T19:03:22.332Z,7.80
2018-07-20T19:05:50.804Z,7.80
2018-07-20T19:08:19.275Z,8.53
2018-07-20T19:10:47.756Z,9.47
2018-07-20T19:13:16.257Z,8.27
2018-07-20T19:15:44.801Z,8.57
2018-07-20T19:18:13.282Z,9.57
2018-07-20T19:20:41.926Z,12.97
2018-07-20T19:23:10.524Z,16.13
2018-07-20T19:25:39.036Z,16.40
2018-07-20T19:28:07.463Z,15.23
2018-07-20T19:30:35.959Z,14.87
2018-07-20T19:33:04.456Z,14.40
2018-07-20T19:35:32.924Z,15.80
2018-07-20T19:38:01.401Z,15.97
2018-07-20T19:40:29.827Z,16.67
2018-07-20T19:42:58.392Z,9.20
2018-07-20T19:45:27.092Z,8.73
2018-07-20T19:47:55.546Z,9.23
2018-07-20T19:50:24.022Z,7.13
2018-07-20T19:52:52.435Z,8.13
2018-07-20T19:55:20.989Z,7.47
2018-07-20T19:57:49.629Z,8.97
2018-07-20T20:00:18.173Z,7.97
2018-07-20T20:02:46.840Z,7.70
2018-07-20T20:05:15.508Z,7.93
2018-07-20T20:07:43.941Z,7.37
2018-07-20T20:10:12.763Z,6.97
2018-07-20T20:12:41.188Z,7.20
2018-07-20T20:15:09.801Z,7.03
2018-07-20T20:17:38.371Z,7.50
2018-07-20T20:20:09.586Z,6.90
2018-07-20T20:22:38.061Z,7.10
2018-07-20T20:25:06.665Z,7.97
2018-07-20T20:27:35.231Z,7.97
2018-07-20T20:30:03.836Z,7.77
2018-07-20T20:32:32.306Z,8.10
2018-07-20T20:35:00.731Z,7.40
2018-07-20T20:37:29.232Z,7.40
2018-07-20T20:39:57.663Z,7.27
2018-07-20T20:42:26.132Z,8.87
2018-07-20T20:44:54.610Z,7.83
2018-07-20T20:47:23.053Z,7.97
2018-07-20T20:49:51.548Z,8.17
2018-07-20T20:52:20.593Z,9.60
2018-07-20T20:54:49.162Z,10.00
2018-07-20T20:57:17.744Z,9.13
2018-07-20T20:59:46.136Z,8.30
2018-07-20T21:02:14.558Z,8.37
2018-07-20T21:04:42.675Z,7.57
2018-07-20T21:07:11.133Z,8.13
2018-07-20T21:09:39.588Z,8.27
2018-07-20T21:12:08.117Z,8.13
2018-07-20T21:14:36.547Z,7.67
2018-07-20T21:17:05.064Z,7.67
2018-07-20T21:19:33.535Z,8.87
2018-07-20T21:22:01.771Z,8.77
2018-07-20T21:24:30.252Z,8.60
2018-07-20T21:26:59.134Z,8.00
2018-07-20T21:29:27.595Z,8.13
2018-07-20T21:31:56.140Z,7.83
2018-07-20T21:34:24.972Z,7.40
2018-07-20T21:36:53.400Z,8.43
2018-07-20T21:39:21.844Z,8.83
2018-07-20T21:41:50.408Z,8.27
2018-07-20T21:44:18.937Z,8.80
2018-07-20T21:46:47.335Z,8.53
2018-07-20T21:49:15.791Z,7.87
2018-07-20T21:51:44.208Z,7.70
2018-07-20T21:54:12.640Z,8.43
2018-07-20T21:56:49.196Z,7.60
2018-07-20T21:59:17.669Z,8.63
2018-07-20T22:01:46.220Z,7.80
2018-07-20T22:04:14.672Z,7.97
2018-07-20T22:06:43.127Z,7.50
2018-07-20T22:09:12.356Z,6.97
2018-07-20T22:11:40.809Z,8.13
2018-07-20T22:14:09.212Z,7.57
2018-07-20T22:16:37.781Z,7.77
2018-07-20T22:19:09.197Z,8.97
2018-07-20T22:21:37.625Z,7.70
2018-07-20T22:24:07.716Z,7.30
2018-07-20T22:26:36.423Z,8.27
2018-07-20T22:29:04.960Z,7.63
2018-07-20T22:31:33.434Z,8.23
2018-07-20T22:34:01.924Z,7.73
2018-07-20T22:36:30.387Z,7.47
2018-07-20T22:38:58.847Z,7.53
2018-07-20T22:41:27.276Z,7.13
2018-07-20T22:43:55.679Z,6.83
2018-07-20T22:46:24.324Z,7.33
2018-07-20T22:48:52.736Z,7.10
2018-07-20T22:51:21.184Z,7.83
2018-07-20T22:53:49.620Z,7.60
2018-07-20T22:56:18.029Z,8.10
2018-07-20T22:58:46.470Z,9.17
2018-07-20T23:01:14.902Z,8.33
2018-07-20T23:03:43.344Z,8.30
2018-07-20T23:06:12.518Z,7.27
2018-07-20T23:08:40.928Z,7.53
2018-07-20T23:11:09.383Z,7.90
2018-07-20T23:13:37.784Z,8.60
2018-07-20T23:16:06.292Z,8.13
2018-07-20T23:18:34.789Z,10.60
2018-07-20T23:21:03.309Z,9.90
2018-07-20T23:23:31.716Z,10.97
2018-07-20T23:26:00.167Z,10.37
2018-07-20T23:28:28.627Z,9.83
2018-07-20T23:30:57.041Z,9.30
2018-07-20T23:33:25.521Z,8.53
2018-07-20T23:35:54.077Z,8.77
2018-07-20T23:38:22.517Z,8.73
2018-07-20T23:40:50.924Z,8.03
2018-07-20T23:43:19.423Z,7.23
2018-07-20T23:45:47.825Z,6.83
2018-07-20T23:48:16.243Z,7.50
2018-07-20T23:50:44.635Z,7.50
2018-07-20T23:53:13.069Z,10.20
2018-07-20T23:55:41.541Z,8.83
2018-07-20T23:58:10.041Z,8.00
